Time;durP1;ratioP1;P1;durP2;ratioP2;P2;SDS_P1;SDS_P2;PMS_P1;PMS_P2;Temp;Humidity;BMP_temperature;BMP_pressure;BME280_temperature;BME280_humidity;BME280_pressure;Samples;Min_cycle;Max_cycle;Signal;HPM_P1;HPM_P2
2024/03/02 00:01:46;;;;;;;40.83;28.07;;;7.40;99.90;;;-141.84;100.00;106441.06;5072949;28;20268;-60
2024/03/02 00:04:15;;;;;;;40.87;28.97;;;7.40;99.90;;;-141.84;100.00;102986.25;5072947;28;20224;-61
2024/03/02 00:06:45;;;;;;;43.43;28.13;;;7.40;99.90;;;-141.84;100.00;102986.25;5062812;28;20244;-61
2024/03/02 00:09:13;;;;;;;37.83;27.17;;;7.40;99.90;;;-141.84;100.00;102720.59;5070216;28;20228;-60
2024/03/02 00:11:48;;;;;;;42.07;28.00;;;7.40;99.90;;;-141.84;99.23;98207.50;5073514;28;20221;-61
2024/03/02 00:14:24;;;;;;;43.73;27.27;;;7.50;99.90;;;-141.84;98.00;95289.94;5073209;28;20220;-60
2024/03/02 00:16:56;;;;;;;44.03;27.33;;;7.50;99.90;;;-141.84;97.37;93169.38;5072761;28;20641;-61
2024/03/02 00:19:25;;;;;;;44.83;28.33;;;7.60;99.90;;;-141.84;96.15;90785.09;5066784;28;20254;-60
2024/03/02 00:21:53;;;;;;;42.43;28.67;;;7.60;99.90;;;-141.84;97.34;92904.41;5073780;28;20244;-61
2024/03/02 00:24:34;;;;;;;39.17;26.63;;;7.60;99.90;;;-141.84;100.00;100861.66;5074368;28;20217;-61
2024/03/02 00:27:11;;;;;;;42.13;27.07;;;7.50;99.90;;;-141.84;100.00;106706.94;5074508;28;20195;-61
2024/03/02 00:29:44;;;;;;;39.83;27.70;;;7.40;99.90;;;-141.84;100.00;110431.03;5073242;28;20368;-60
2024/03/02 00:32:17;;;;;;;39.40;26.27;;;7.40;99.90;;;-141.84;100.00;112294.34;5073154;28;20276;-60
2024/03/02 00:34:50;;;;;;;38.50;26.50;;;7.40;99.90;;;-141.84;100.00;114424.91;5071016;28;20220;-60
2024/03/02 00:37:20;;;;;;;40.73;27.70;;;7.30;99.90;;;-141.84;100.00;116023.56;5072952;28;20231;-60
2024/03/02 00:39:51;;;;;;;40.30;28.00;;;7.40;99.90;;;-141.84;100.00;117356.25;5029957;28;20279;-61
2024/03/02 00:42:24;;;;;;;42.80;27.83;;;7.30;99.90;;;-141.84;100.00;118422.72;5072538;28;20543;-60
2024/03/02 00:44:52;;;;;;;39.30;26.90;;;7.30;99.90;;;-141.84;100.00;118956.03;5023779;28;20741;-61
2024/03/02 00:47:25;;;;;;;42.83;29.77;;;7.30;99.90;;;-141.84;100.00;119222.75;5072667;28;20296;-61
2024/03/02 00:49:53;;;;;;;42.27;28.60;;;7.30;99.90;;;-141.84;100.00;119224.81;5064938;28;20594;-61
2024/03/02 00:52:25;;;;;;;45.17;29.07;;;7.30;99.90;;;-141.84;100.00;119224.81;5072800;28;20288;-62
2024/03/02 00:55:00;;;;;;;42.03;27.47;;;7.30;99.90;;;-141.84;100.00;119224.81;5073016;28;20299;-60
2024/03/02 00:57:35;;;;;;;44.00;28.50;;;7.30;99.90;;;-141.84;100.00;119224.81;5055392;28;20279;-61
2024/03/02 01:00:10;;;;;;;40.57;28.63;;;7.30;99.90;;;-141.84;100.00;119224.81;5073632;28;20201;-61
2024/03/02 01:02:46;;;;;;;45.97;28.47;;;7.30;99.90;;;-141.84;100.00;119224.81;5072241;28;20719;-61
2024/03/02 01:05:14;;;;;;;41.47;27.47;;;7.20;99.90;;;-141.84;100.00;119224.81;5072481;28;20216;-60
2024/03/02 01:07:45;;;;;;;40.97;27.57;;;7.20;99.90;;;-141.84;100.00;119224.81;5064782;28;20259;-61
2024/03/02 01:10:13;;;;;;;40.17;26.77;;;7.30;99.90;;;-141.84;100.00;119224.81;5072951;28;20240;-61
2024/03/02 01:12:45;;;;;;;47.50;29.77;;;7.20;99.90;;;-141.84;100.00;119224.81;5075590;28;20220;-61
2024/03/02 01:15:13;;;;;;;43.60;27.37;;;7.20;99.90;;;-141.84;100.00;119224.81;5076818;28;20193;-60
2024/03/02 01:17:46;;;;;;;45.33;28.73;;;7.30;99.90;;;-141.84;100.00;119224.81;5076823;28;20217;-60
2024/03/02 01:20:14;;;;;;;42.70;28.17;;;7.30;99.90;;;-141.84;100.00;119224.81;5075989;28;20630;-60
2024/03/02 01:22:47;;;;;;;41.33;27.90;;;7.20;99.90;;;-141.84;100.00;119224.81;5076449;28;20244;-59
2024/03/02 01:25:15;;;;;;;38.43;25.73;;;7.20;99.90;;;-141.84;100.00;119224.81;5076445;28;20311;-61
2024/03/02 01:27:45;;;;;;;39.07;26.47;;;7.20;99.90;;;-141.84;100.00;119224.81;5076821;28;20213;-61
2024/03/02 01:30:17;;;;;;;39.03;26.30;;;7.20;99.90;;;-141.84;100.00;119224.81;5076854;28;20188;-60
2024/03/02 01:32:51;;;;;;;38.67;26.07;;;7.20;99.90;;;-141.84;100.00;119224.81;5076506;28;20209;-62
2024/03/02 01:35:24;;;;;;;37.03;25.67;;;7.20;99.90;;;-141.84;100.00;119224.81;5076116;28;20220;-60
2024/03/02 01:37:52;;;;;;;41.30;27.13;;;7.30;99.90;;;-141.84;100.00;119224.81;5075608;28;20220;-60
2024/03/02 01:40:26;;;;;;;35.50;25.07;;;7.20;99.90;;;-141.84;100.00;119224.81;5076322;28;20251;-61
2024/03/02 01:42:57;;;;;;;36.97;25.47;;;7.20;99.90;;;-141.84;100.00;119224.81;5075730;28;20262;-60
2024/03/02 01:45:30;;;;;;;38.30;25.73;;;7.20;99.90;;;-141.84;100.00;119224.81;5076162;28;20192;-60
2024/03/02 01:48:05;;;;;;;38.20;26.10;;;7.20;99.90;;;-141.84;100.00;119224.81;5076481;28;20189;-61
2024/03/02 01:50:34;;;;;;;38.73;25.13;;;7.20;99.90;;;-141.84;100.00;119224.81;5075741;28;20289;-60
2024/03/02 01:53:05;;;;;;;37.40;26.00;;;7.30;99.90;;;-141.84;100.00;119224.81;5076299;28;20242;-60
2024/03/02 01:55:34;;;;;;;36.40;25.87;;;7.30;99.90;;;-141.84;100.00;118422.72;5075787;28;20592;-61
2024/03/02 01:58:05;;;;;;;36.43;23.13;;;7.30;99.90;;;-141.84;100.00;116823.13;5075911;28;20221;-61
2024/03/02 02:00:34;;;;;;;37.77;23.17;;;7.30;99.90;;;-141.84;100.00;114691.31;5036861;28;20198;-60
2024/03/02 02:03:06;;;;;;;33.60;22.13;;;7.30;99.90;;;-141.84;100.00;110164.91;5073522;28;20193;-60
2024/03/02 02:05:35;;;;;;;31.93;22.00;;;7.40;99.90;;;-141.84;100.00;113625.81;5067520;28;20228;-60
2024/03/02 02:08:06;;;;;;;32.63;22.50;;;7.30;99.90;;;-141.84;100.00;116556.59;5075668;28;20247;-62
2024/03/02 02:10:34;;;;;;;28.67;20.93;;;7.30;99.90;;;-141.84;100.00;117622.84;5075371;28;20237;-61
2024/03/02 02:13:05;;;;;;;31.20;20.93;;;7.30;99.90;;;-141.84;100.00;118156.06;5076167;28;20307;-64
2024/03/02 02:15:35;;;;;;;31.80;20.87;;;7.30;99.90;;;-141.84;100.00;118689.38;5075525;28;20193;-60
2024/03/02 02:18:06;;;;;;;28.67;20.73;;;7.30;99.90;;;-141.84;100.00;116023.56;5076286;28;20201;-60
2024/03/02 02:20:34;;;;;;;27.87;20.23;;;7.30;99.90;;;-141.84;100.00;112028.13;5075451;28;20216;-62
2024/03/02 02:23:07;;;;;;;31.00;20.83;;;7.40;99.90;;;-141.84;100.00;112294.34;5074933;28;20221;-61
2024/03/02 02:25:36;;;;;;;30.53;19.67;;;7.40;99.90;;;-141.84;100.00;111229.50;5075531;28;20224;-60
2024/03/02 02:28:05;;;;;;;26.10;19.47;;;7.40;99.90;;;-141.84;100.00;111495.69;5075881;28;20246;-61
2024/03/02 02:30:34;;;;;;;27.17;19.77;;;7.40;99.90;;;-141.84;100.00;113625.81;5074988;28;20204;-60
2024/03/02 02:33:05;;;;;;;27.97;19.80;;;7.30;99.90;;;-141.84;100.00;112028.13;5075946;28;20200;-59
2024/03/02 02:35:33;;;;;;;27.97;18.67;;;7.40;99.90;;;-141.84;100.00;110697.16;5075020;28;20216;-61
2024/03/02 02:38:06;;;;;;;28.10;19.30;;;7.30;99.90;;;-141.84;100.00;107770.63;5074839;28;20228;-60
2024/03/02 02:40:34;;;;;;;24.97;17.90;;;7.40;99.90;;;-141.84;100.00;101127.16;5075298;28;20315;-61
2024/03/02 02:43:06;;;;;;;27.37;19.03;;;7.40;99.90;;;-141.84;98.85;96881.06;5074780;28;20280;-60
2024/03/02 02:45:34;;;;;;;25.97;18.57;;;7.40;99.90;;;-141.84;100.00;100861.66;5067134;28;20205;-61
2024/03/02 02:48:06;;;;;;;27.53;18.10;;;7.40;99.90;;;-141.84;100.00;106441.06;5075781;28;20197;-61
2024/03/02 02:50:34;;;;;;;24.80;18.40;;;7.40;99.90;;;-141.84;100.00;108568.56;5074558;28;20712;-60
2024/03/02 02:53:09;;;;;;;29.57;18.83;;;7.40;99.90;;;-141.84;100.00;111229.50;5074912;28;20228;-60
2024/03/02 02:55:40;;;;;;;24.57;18.87;;;7.40;99.90;;;-141.84;100.00;112560.63;5083062;28;20246;-62
2024/03/02 02:58:11;;;;;;;26.57;18.53;;;7.30;99.90;;;-141.84;100.00;109100.59;5066942;28;20248;-61
2024/03/02 03:00:44;;;;;;;25.23;17.47;;;7.40;99.90;;;-141.84;100.00;106441.06;5074790;28;20301;-60
2024/03/02 03:03:12;;;;;;;27.00;19.00;;;7.30;99.90;;;-141.84;100.00;108834.56;5075057;28;20561;-60
2024/03/02 03:05:44;;;;;;;25.90;18.23;;;7.30;99.90;;;-141.84;100.00;110963.31;5074692;28;20239;-61
2024/03/02 03:08:13;;;;;;;28.93;18.43;;;7.30;99.90;;;-141.84;100.00;112826.88;5072620;28;20224;-61
2024/03/02 03:10:45;;;;;;;25.43;17.47;;;7.30;99.90;;;-141.84;100.00;110164.91;5074428;28;20246;-60
2024/03/02 03:13:13;;;;;;;26.70;18.17;;;7.30;99.90;;;-141.84;100.00;109366.66;5074724;28;20274;-60
2024/03/02 03:15:45;;;;;;;27.67;18.30;;;7.30;99.90;;;-141.84;100.00;109100.59;5074576;28;20303;-61
2024/03/02 03:18:13;;;;;;;23.37;17.60;;;7.30;99.90;;;-141.84;100.00;107238.72;5023679;28;20224;-60
2024/03/02 03:20:45;;;;;;;27.50;18.50;;;7.30;99.90;;;-141.84;100.00;107238.72;5074680;28;20264;-63
2024/03/02 03:23:16;;;;;;;27.83;18.53;;;7.30;99.90;;;-141.84;100.00;104314.66;5074126;28;20224;-60
2024/03/02 03:25:45;;;;;;;25.43;18.77;;;7.20;99.90;;;-141.84;100.00;107504.66;5074802;28;20301;-60
2024/03/02 03:28:13;;;;;;;27.43;19.17;;;7.20;99.90;;;-141.84;100.00;108568.56;5074015;28;20270;-60
2024/03/02 03:30:44;;;;;;;26.60;18.60;;;7.20;99.90;;;-141.84;100.00;106972.81;5066126;28;20232;-60
2024/03/02 03:33:13;;;;;;;23.67;17.47;;;7.20;99.90;;;-141.84;100.00;108834.56;5074815;28;20601;-60
2024/03/02 03:35:44;;;;;;;23.30;17.60;;;7.20;99.90;;;-141.84;100.00;112028.13;5074109;28;20217;-59
2024/03/02 03:38:14;;;;;;;23.53;17.27;;;7.20;99.90;;;-141.84;100.00;114691.31;5074098;28;20256;-60
2024/03/02 03:40:45;;;;;;;25.67;17.27;;;7.20;99.90;;;-141.84;100.00;116023.56;5074562;28;20220;-60
2024/03/02 03:43:13;;;;;;;23.17;17.00;;;7.20;99.90;;;-141.84;100.00;109366.66;5074138;28;20260;-60
2024/03/02 03:45:45;;;;;;;24.13;16.60;;;7.20;99.90;;;-141.84;100.00;109632.72;5073856;28;20244;-60
2024/03/02 03:48:13;;;;;;;27.93;18.20;;;7.20;99.90;;;-141.84;100.00;110963.31;5074360;28;20280;-59
2024/03/02 03:50:45;;;;;;;24.07;17.30;;;7.20;99.90;;;-141.84;100.00;108302.56;5065874;28;20223;-60
2024/03/02 03:53:15;;;;;;;25.47;16.93;;;7.30;99.90;;;-141.84;100.00;107238.72;5038427;28;20739;-60
2024/03/02 03:55:46;;;;;;;24.63;16.20;;;7.30;99.90;;;-141.84;100.00;106175.19;5074104;28;20233;-61
2024/03/02 03:58:16;;;;;;;26.03;17.63;;;7.30;99.90;;;-141.84;100.00;106972.81;5073589;28;20217;-60
2024/03/02 04:00:50;;;;;;;22.07;17.27;;;7.30;99.90;;;-141.84;100.00;109100.59;5073686;28;20220;-60
2024/03/02 04:03:23;;;;;;;22.77;17.60;;;7.30;99.90;;;-141.84;100.00;109366.66;5065112;28;20205;-60
2024/03/02 04:05:51;;;;;;;23.57;17.00;;;7.30;99.90;;;-141.84;100.00;108036.56;5074525;28;20207;-61
2024/03/02 04:08:25;;;;;;;26.20;17.57;;;7.30;99.90;;;-141.84;100.00;108302.56;5072871;28;20221;-60
2024/03/02 04:10:53;;;;;;;23.80;16.53;;;7.20;99.90;;;-141.84;100.00;108834.56;5073730;28;20274;-60
2024/03/02 04:13:25;;;;;;;24.23;16.93;;;7.20;99.90;;;-141.84;100.00;106441.06;5073740;28;20231;-60
2024/03/02 04:15:53;;;;;;;23.00;17.30;;;7.20;99.90;;;-141.84;97.08;94759.69;5073486;28;20226;-61
2024/03/02 04:18:25;;;;;;;24.37;16.70;;;7.30;99.90;;;-141.84;96.88;91049.97;5073482;28;20213;-63
2024/03/02 04:20:53;;;;;;;23.00;16.30;;;7.30;99.90;;;-141.84;99.93;98207.50;5022482;28;20231;-61
2024/03/02 04:23:26;;;;;;;21.17;15.60;;;7.30;99.90;;;-141.84;100.00;104846.16;5073352;28;20234;-60
2024/03/02 04:25:54;;;;;;;25.97;17.40;;;7.20;99.90;;;-141.84;100.00;107770.63;5073031;28;20312;-60
2024/03/02 04:28:24;;;;;;;22.53;16.83;;;7.20;99.90;;;-141.84;100.00;107504.66;5073624;28;20288;-60
2024/03/02 04:30:53;;;;;;;23.07;16.77;;;7.20;99.90;;;-141.84;100.00;104580.41;5073214;28;20258;-60
2024/03/02 04:33:24;;;;;;;23.90;17.07;;;7.20;99.90;;;-141.84;100.00;107770.63;5073465;28;20204;-60
2024/03/02 04:35:53;;;;;;;21.63;15.87;;;7.10;99.90;;;-141.84;100.00;107770.63;5073533;28;20223;-59
2024/03/02 04:38:26;;;;;;;24.20;16.60;;;7.10;99.90;;;-141.84;100.00;108834.56;5073091;28;20351;-61
2024/03/02 04:40:54;;;;;;;23.00;16.77;;;7.10;99.90;;;-141.84;100.00;109100.59;5073047;28;20359;-60
2024/03/02 04:43:25;;;;;;;23.93;16.70;;;7.00;99.90;;;-141.84;100.00;110431.03;5073434;28;20243;-60
2024/03/02 04:45:53;;;;;;;26.83;17.73;;;7.00;99.90;;;-141.84;100.00;107238.72;5071562;28;20225;-60
2024/03/02 04:48:25;;;;;;;26.70;17.13;;;7.10;99.90;;;-141.84;100.00;103251.88;5077047;28;20201;-61
2024/03/02 04:50:53;;;;;;;24.03;17.03;;;7.10;99.90;;;-141.84;100.00;103783.25;5075872;28;20224;-61
2024/03/02 04:53:26;;;;;;;23.07;16.77;;;7.10;99.90;;;-141.84;100.00;104580.41;5077038;28;20244;-60
2024/03/02 04:56:27;;;;;;;24.37;16.77;;;7.00;99.90;;;-141.84;100.00;104314.66;5068545;28;20711;-60
2024/03/02 04:58:55;;;;;;;26.10;18.23;;;7.00;99.90;;;-141.84;100.00;104048.94;5075815;28;20281;-61
2024/03/02 05:01:25;;;;;;;24.27;17.40;;;7.00;99.90;;;-141.84;100.00;106175.19;5077425;28;20252;-60
2024/03/02 05:03:53;;;;;;;24.73;18.33;;;7.00;99.90;;;-141.84;100.00;106972.81;5076618;28;20220;-60
2024/03/02 05:06:24;;;;;;;26.27;17.97;;;7.00;99.90;;;-141.84;100.00;107504.66;5076570;28;20227;-59
2024/03/02 05:08:54;;;;;;;23.20;16.47;;;6.90;99.90;;;-141.84;100.00;109366.66;5076960;28;20231;-60
2024/03/02 05:11:53;;;;;;;27.20;18.27;;;7.00;99.90;;;-141.84;100.00;110431.03;5076566;28;20251;-60
2024/03/02 05:14:25;;;;;;;24.23;16.43;;;6.90;99.90;;;-141.84;100.00;109632.72;5076824;28;20691;-60
2024/03/02 05:16:53;;;;;;;24.47;16.90;;;6.90;99.90;;;-141.84;100.00;111761.88;5075990;28;20711;-60
2024/03/02 05:19:25;;;;;;;22.97;16.57;;;6.90;99.90;;;-141.84;100.00;111761.88;5076418;28;20250;-60
2024/03/02 05:21:53;;;;;;;24.93;17.53;;;6.90;99.90;;;-141.84;100.00;111229.50;5076161;28;20278;-60
2024/03/02 05:24:28;;;;;;;23.93;16.57;;;6.80;99.90;;;-141.84;100.00;108302.56;5076642;28;20201;-61
2024/03/02 05:26:56;;;;;;;25.67;17.03;;;6.90;99.90;;;-141.84;100.00;106972.81;5076714;28;20212;-60
2024/03/02 05:29:25;;;;;;;23.73;16.67;;;6.90;99.90;;;-141.84;100.00;108568.56;5076506;28;20284;-60
2024/03/02 05:31:53;;;;;;;25.33;17.37;;;6.90;99.90;;;-141.84;100.00;108302.56;5075822;28;20273;-60
2024/03/02 05:34:25;;;;;;;23.43;16.40;;;6.90;99.90;;;-141.84;100.00;102455.00;5076152;28;20232;-60
2024/03/02 05:36:53;;;;;;;23.63;16.73;;;7.00;99.90;;;-141.84;100.00;103783.25;5075453;28;20311;-59
2024/03/02 05:39:26;;;;;;;23.80;16.83;;;7.00;99.90;;;-141.84;100.00;104580.41;5076320;28;20272;-60
2024/03/02 05:41:54;;;;;;;25.87;17.07;;;6.90;99.90;;;-141.84;100.00;105643.53;5076319;28;20197;-60
2024/03/02 05:44:25;;;;;;;23.57;17.83;;;6.90;99.90;;;-141.84;100.00;107238.72;5080245;28;20288;-59
2024/03/02 05:46:53;;;;;;;26.10;17.70;;;7.00;99.90;;;-141.84;97.98;95820.25;5075169;28;20646;-60
2024/03/02 05:49:25;;;;;;;25.00;17.50;;;7.00;99.90;;;-141.84;97.29;92904.41;5076090;28;20252;-60
2024/03/02 05:51:53;;;;;;;24.57;17.57;;;7.00;99.90;;;-141.84;97.28;93169.38;5075342;28;20715;-60
2024/03/02 05:54:26;;;;;;;26.20;17.80;;;7.10;99.90;;;-141.84;94.26;85227.25;5076295;28;20204;-60
2024/03/02 05:56:54;;;;;;;27.60;17.97;;;7.20;99.90;;;-141.84;94.67;84433.91;5068222;28;20212;-60
2024/03/02 05:59:25;;;;;;;26.00;17.57;;;7.20;99.90;;;-141.84;94.33;83640.72;5075181;28;20652;-60
2024/03/02 06:01:53;;;;;;;27.50;18.50;;;7.20;99.90;;;-141.84;93.00;82054.78;5040296;28;20240;-60
2024/03/02 06:04:24;;;;;;;25.80;18.07;;;7.20;99.90;;;-141.84;90.67;71761.53;5075646;28;20239;-60
2024/03/02 06:06:54;;;;;;;24.23;17.20;;;7.30;99.90;;;-141.84;89.48;64387.81;5075365;28;20240;-60
2024/03/02 06:09:26;;;;;;;26.23;17.40;;;7.40;99.90;;;-141.84;88.40;61494.72;5075973;28;20216;-60
2024/03/02 06:11:54;;;;;;;25.13;17.87;;;7.40;99.90;;;-141.84;90.55;68863.09;5076127;28;20562;-64
2024/03/02 06:14:25;;;;;;;27.37;18.53;;;7.40;99.90;;;-141.84;91.92;75717.34;5075510;28;20224;-60
2024/03/02 06:16:53;;;;;;;26.73;18.20;;;7.50;99.90;;;-141.84;93.05;80205.34;5070971;28;20224;-61
2024/03/02 06:19:28;;;;;;;24.30;17.17;;;7.40;99.90;;;-141.84;94.24;84433.91;5075512;28;20224;-60
2024/03/02 06:21:56;;;;;;;28.70;18.47;;;7.40;99.90;;;-141.84;96.08;89196.38;5074911;28;20293;-60
2024/03/02 06:24:26;;;;;;;25.43;17.90;;;7.40;99.90;;;-141.84;98.05;94494.59;5075717;28;20221;-60
2024/03/02 06:26:54;;;;;;;25.73;17.53;;;7.40;99.90;;;-141.84;98.70;96350.63;5075457;28;20266;-61
2024/03/02 06:29:25;;;;;;;28.07;18.47;;;7.40;99.90;;;-141.84;99.59;98738.19;5075393;28;20255;-61
2024/03/02 06:31:53;;;;;;;24.30;17.73;;;7.40;99.90;;;-141.84;96.55;91314.81;5074958;28;20292;-60
2024/03/02 06:34:25;;;;;;;27.23;17.73;;;7.40;99.90;;;-141.84;95.67;91049.97;5075202;28;20224;-60
2024/03/02 06:36:53;;;;;;;25.10;18.10;;;7.40;99.90;;;-141.84;90.14;71234.38;5065458;28;20320;-61
2024/03/02 06:39:26;;;;;;;28.67;19.17;;;7.50;99.90;;;-141.84;87.58;58866.47;5075332;28;20197;-60
2024/03/02 06:41:54;;;;;;;27.33;18.07;;;7.60;99.90;;;-141.84;86.02;48632.88;5037815;28;20236;-61
2024/03/02 06:44:25;;;;;;;28.67;19.17;;;7.70;99.90;;;-141.84;84.64;39716.53;5075387;28;20225;-60
2024/03/02 06:46:53;;;;;;;29.70;20.60;;;7.80;99.90;;;-141.84;85.88;47060.84;5073834;28;20635;-59
2024/03/02 06:49:25;;;;;;;27.20;18.43;;;7.80;99.90;;;-141.84;88.13;59654.75;5074562;28;20256;-60
2024/03/02 06:51:53;;;;;;;25.87;18.40;;;7.80;99.90;;;-141.84;85.91;50992.13;5074596;28;20225;-60
2024/03/02 06:54:26;;;;;;;27.50;18.43;;;7.80;99.90;;;-141.84;87.10;53352.78;5074720;28;20201;-60
2024/03/02 06:56:54;;;;;;;25.90;18.23;;;7.90;99.90;;;-141.84;85.00;43656.88;5075183;28;20204;-60
2024/03/02 06:59:25;;;;;;;27.43;19.37;;;7.90;99.90;;;-141.84;85.38;42871.75;5075157;28;20247;-61
2024/03/02 07:01:53;;;;;;;26.33;18.73;;;7.90;99.90;;;-141.84;87.90;58341.03;5074140;28;20256;-59
2024/03/02 07:04:24;;;;;;;27.27;19.47;;;7.90;99.90;;;-141.84;86.00;50205.56;5074536;28;20228;-59
2024/03/02 07:06:53;;;;;;;27.73;19.60;;;7.90;99.90;;;-141.84;86.14;48894.97;5074357;28;20224;-59
2024/03/02 07:09:26;;;;;;;27.70;19.10;;;7.90;99.90;;;-141.84;87.14;55452.34;5074001;28;20232;-60
2024/03/02 07:11:54;;;;;;;29.93;19.93;;;8.00;99.90;;;-141.84;86.07;48894.97;5074849;28;20197;-61
2024/03/02 07:14:53;;;;;;;30.10;20.53;;;8.00;99.90;;;-141.84;87.66;58866.47;5074716;28;20221;-62
2024/03/02 07:17:13;;;;;;;28.57;19.40;;;8.00;99.90;;;-141.84;86.82;53877.56;5072166;28;20300;-60
2024/03/02 07:19:44;;;;;;;27.87;19.17;;;8.10;99.90;;;-141.84;88.18;60706.06;5074078;28;20243;-61
2024/03/02 07:22:13;;;;;;;27.67;19.53;;;8.10;99.90;;;-141.84;88.29;62020.59;5073977;28;20248;-61
2024/03/02 07:24:45;;;;;;;31.20;18.40;;;8.20;99.90;;;-141.84;88.87;65440.38;5074051;28;20296;-60
2024/03/02 07:27:14;;;;;;;29.77;18.90;;;8.20;99.90;;;-141.84;88.13;61757.66;5073983;28;20661;-59
2024/03/02 07:29:45;;;;;;;29.20;19.77;;;8.30;99.90;;;-141.84;86.04;50729.94;5074302;28;20213;-60
2024/03/02 07:32:13;;;;;;;29.37;18.90;;;8.40;99.90;;;-141.84;86.20;50467.75;5074156;28;20630;-60
2024/03/02 07:34:45;;;;;;;27.97;18.43;;;8.40;99.90;;;-141.84;86.66;52828.09;5065575;28;20220;-60
2024/03/02 07:37:13;;;;;;;28.40;18.40;;;8.50;99.90;;;-141.84;86.79;55452.34;5073405;28;20255;-61
2024/03/02 07:39:46;;;;;;;26.50;19.40;;;8.50;99.90;;;-141.84;86.21;51778.88;5073803;28;20239;-61
2024/03/02 07:42:14;;;;;;;29.67;19.67;;;8.60;99.90;;;-141.84;85.27;45489.41;5074199;28;20192;-60
2024/03/02 07:44:45;;;;;;;30.03;19.97;;;8.60;99.90;;;-141.84;83.32;32816.16;5074045;28;20311;-61
2024/03/02 07:47:14;;;;;;;26.40;18.10;;;8.70;99.90;;;-141.84;83.29;31833.41;5073077;28;20228;-60
2024/03/02 07:49:46;;;;;;;28.57;20.23;;;8.80;99.90;;;-141.84;82.83;29707.69;5073979;28;20217;-60
2024/03/02 07:52:14;;;;;;;28.27;17.93;;;8.80;99.90;;;-141.84;81.55;24088.19;5073104;28;20247;-60
2024/03/02 07:54:46;;;;;;;24.33;17.40;;;8.90;99.90;;;-141.84;82.01;26131.47;5074768;28;20251;-60
2024/03/02 07:57:15;;;;;;;25.77;18.50;;;8.90;99.90;;;-141.84;81.87;25372.22;5074463;28;20624;-60
2024/03/02 07:59:45;;;;;;;28.27;19.07;;;9.00;99.90;;;-141.84;81.10;22774.06;5074856;28;20220;-61
2024/03/02 08:02:14;;;;;;;26.23;17.47;;;9.00;99.90;;;-141.84;81.15;23121.88;5074235;28;20517;-61
2024/03/02 08:04:45;;;;;;;28.57;18.47;;;9.00;99.90;;;-141.84;79.15;20175.63;5074674;28;20228;-60
2024/03/02 08:07:14;;;;;;;25.70;17.40;;;9.10;99.90;;;-141.84;78.94;19793.50;5073916;28;20257;-61
2024/03/02 08:09:46;;;;;;;25.43;17.90;;;9.20;99.90;;;-141.84;77.39;18988.78;5073736;28;20231;-60
2024/03/02 08:12:15;;;;;;;24.33;17.33;;;9.20;99.90;;;-141.84;76.33;18679.94;5073830;28;20182;-59
2024/03/02 08:14:45;;;;;;;26.40;18.33;;;9.20;99.90;;;-141.84;75.26;18537.72;5074297;28;20213;-61
2024/03/02 08:17:13;;;;;;;23.93;17.63;;;9.20;99.90;;;-141.84;75.89;18598.69;5073518;28;20240;-60
2024/03/02 08:19:46;;;;;;;24.50;17.93;;;9.30;99.90;;;-141.84;75.80;18627.13;5072996;28;20260;-61
2024/03/02 08:22:14;;;;;;;25.47;17.73;;;9.30;99.90;;;-141.84;76.18;18708.41;5073020;28;20232;-61
2024/03/02 08:24:47;;;;;;;26.10;18.07;;;9.30;99.90;;;-141.84;75.13;18578.38;5073644;28;20249;-61
2024/03/02 08:27:15;;;;;;;23.60;17.80;;;9.40;99.90;;;-141.84;75.29;18645.41;5073145;28;20228;-60
2024/03/02 08:29:45;;;;;;;24.97;17.33;;;9.50;99.90;;;-141.84;75.81;18669.78;5073887;28;20212;-61
2024/03/02 08:32:13;;;;;;;25.07;16.93;;;9.60;99.90;;;-141.84;76.26;18779.50;5072998;28;20712;-60
2024/03/02 08:34:45;;;;;;;23.03;17.43;;;9.60;99.90;;;-141.84;76.15;18783.56;5073056;28;20255;-61
2024/03/02 08:37:13;;;;;;;23.20;17.53;;;9.80;99.90;;;-141.84;75.54;18671.81;5066547;28;20270;-60
2024/03/02 08:39:47;;;;;;;22.77;17.00;;;9.70;99.90;;;-141.84;75.45;18643.38;5071711;28;20240;-60
2024/03/02 08:42:17;;;;;;;25.23;18.47;;;9.70;99.90;;;-141.84;75.31;18684.00;5068617;28;20192;-61
2024/03/02 08:44:46;;;;;;;22.77;15.73;;;9.70;99.90;;;-141.84;75.01;18649.47;5073759;28;20274;-60
2024/03/02 08:47:14;;;;;;;22.60;16.43;;;9.80;99.90;;;-141.84;73.91;18509.28;5072952;28;20308;-61
2024/03/02 08:49:45;;;;;;;23.33;16.50;;;9.90;99.90;;;-141.84;73.80;18560.06;5072866;28;20232;-60
2024/03/02 08:52:14;;;;;;;24.67;18.47;;;9.90;99.90;;;-141.84;73.04;18509.28;5073328;28;20252;-61
2024/03/02 08:54:45;;;;;;;23.77;17.03;;;10.00;99.90;;;-141.84;71.83;18438.19;5073476;28;20248;-61
2024/03/02 08:57:15;;;;;;;22.87;16.57;;;10.10;99.90;;;-141.84;70.53;18417.84;5074139;28;20555;-61
2024/03/02 08:59:45;;;;;;;23.23;17.00;;;10.20;99.90;;;-141.84;70.99;18440.22;5073870;28;20247;-61
2024/03/02 09:02:14;;;;;;;26.03;17.97;;;10.30;99.90;;;-141.84;70.20;18432.09;5073847;28;20251;-60
2024/03/02 09:04:45;;;;;;;25.03;17.40;;;10.30;99.90;;;-141.84;68.52;18407.69;5072766;28;20228;-61
2024/03/02 09:07:13;;;;;;;23.73;17.23;;;10.40;99.90;;;-141.84;69.20;18407.69;5073112;28;20231;-61
2024/03/02 09:09:45;;;;;;;20.73;15.93;;;10.50;99.90;;;-141.84;69.27;18423.94;5072809;28;20250;-60
2024/03/02 09:12:14;;;;;;;27.85;17.30;;;10.60;99.90;;;-141.84;69.11;18436.16;5073556;28;20181;-60
2024/03/02 09:14:46;;;;;;;23.90;17.60;;;10.60;99.90;;;-141.84;67.68;18395.50;5073641;28;20208;-61
2024/03/02 09:17:15;;;;;;;26.20;18.40;;;10.70;99.90;;;-141.84;67.73;18442.25;5072781;28;20251;-61
2024/03/02 09:19:45;;;;;;;22.60;16.80;;;10.80;99.90;;;-141.84;66.82;18438.19;5072743;28;20800;-61
2024/03/02 09:22:13;;;;;;;24.63;18.23;;;10.80;99.90;;;-141.84;67.17;18421.91;5072743;28;20248;-60
2024/03/02 09:24:45;;;;;;;23.30;17.07;;;11.00;99.90;;;-141.84;67.49;18495.06;5072821;28;20257;-60
2024/03/02 09:27:15;;;;;;;26.10;17.27;;;11.00;99.90;;;-141.84;66.22;18486.94;5064786;28;21013;-60
2024/03/02 09:29:45;;;;;;;24.00;17.25;;;11.20;99.90;;;-141.84;64.71;18456.47;5073204;28;20237;-60
2024/03/02 09:32:14;;;;;;;24.13;18.17;;;11.30;99.90;;;-141.84;64.10;18497.09;5072291;28;20305;-60
2024/03/02 09:34:45;;;;;;;23.08;17.50;;;11.40;99.90;;;-141.84;64.83;18464.59;5075102;28;20227;-61
2024/03/02 09:37:13;;;;;;;22.45;17.48;;;11.40;99.90;;;-141.84;63.99;18476.78;5075789;28;20216;-61
2024/03/02 09:39:45;;;;;;;25.83;17.20;;;11.50;99.90;;;-141.84;63.25;18458.50;5075837;28;20240;-60
2024/03/02 09:42:15;;;;;;;22.02;17.15;;;11.50;99.90;;;-141.84;62.95;18460.53;5076906;28;20592;-61
2024/03/02 09:44:46;;;;;;;23.80;17.10;;;11.50;99.90;;;-141.84;62.50;18493.03;5076534;28;20422;-61
2024/03/02 09:47:14;;;;;;;22.58;17.35;;;11.60;99.90;;;-141.84;61.81;18511.31;5074307;28;20246;-61
2024/03/02 09:49:45;;;;;;;21.13;15.75;;;11.70;99.90;;;-141.84;61.34;18525.53;5075805;28;20220;-61
2024/03/02 09:52:15;;;;;;;19.83;15.00;;;11.70;99.90;;;-141.84;61.36;18515.38;5075538;28;20293;-60
2024/03/02 09:54:45;;;;;;;24.92;16.00;;;11.80;99.90;;;-141.84;61.26;18521.47;5076245;28;20246;-60
2024/03/02 09:57:15;;;;;;;20.67;15.63;;;11.70;99.90;;;-141.84;60.95;18517.41;5076239;28;20250;-61
2024/03/02 09:59:45;;;;;;;20.15;15.32;;;11.70;99.90;;;-141.84;61.96;18511.31;5076059;28;20212;-60
2024/03/02 10:02:14;;;;;;;20.65;15.35;;;11.70;99.90;;;-141.84;61.69;18533.66;5075771;28;20608;-60
2024/03/02 10:04:46;;;;;;;20.33;14.82;;;11.70;99.90;;;-141.84;61.26;18529.59;5075779;28;20252;-61
2024/03/02 10:07:17;;;;;;;21.67;15.40;;;11.70;99.90;;;-141.84;61.05;18521.47;5032994;28;20308;-61